Superfun — ZCCL5 — position and weather

sailwx.info

Track history (hours):
 
Tides and Currents Weather Stations Pressure Air Temp Water Temp Dewpoint Dewpoint Depression Visibility Wind Speed Wind Dir Waves Ship Positions

Superfun

Last reported at 2017-Apr-25 20:44 UTC. Time now 2017-Apr-28 06:25 UTC.
Position N 43°17' E 007°06'.

Length 40 m.

Type: Other ship. MMSI: 319163000.

Date/timePositionNaut miles runAvg speedWind from/ knotsBaromVisibWave heightAir tempDewpointWater temp
2017-Apr-25 20:44N 43°17' E 007°06'3 9.1
2017-Apr-25 20:23N 43°18' E 007°10'3 8.9
2017-Apr-25 20:00N 43°20' E 007°14'4 8.8
2017-Apr-25 19:30N 43°24' E 007°17'4 8.6
2017-Apr-25 19:00N 43°28' E 007°19'4 8.3
2017-Apr-25 18:30N 43°32' E 007°21'4 8.1
2017-Apr-25 18:00N 43°36' E 007°23'4 8.1
2017-Apr-25 17:31N 43°40' E 007°25'  
2017-Apr-21 06:04N 44°08' E 008°25'1 9.3
2017-Apr-21 06:00N 44°08' E 008°26'5 9.2
2017-Apr-21 05:30N 44°12' E 008°30'5 9.4
2017-Apr-21 05:00N 44°15' E 008°34'5 9.4
2017-Apr-21 04:30N 44°19' E 008°39'5 9.4
2017-Apr-21 04:00N 44°22' E 008°44'5 9.1
2017-Apr-21 03:30N 44°25' E 008°48'1 1.0
2017-Apr-21 02:06N 44°25' E 008°50'0 0.0
2017-Apr-21 01:42N 44°25' E 008°50'0 0.0
2017-Apr-21 01:27N 44°25' E 008°50'0 0.0
2017-Apr-21 00:36N 44°25' E 008°50'0 0.0
2017-Apr-21 00:27N 44°25' E 008°50'0 0.0
2017-Apr-20 23:57N 44°25' E 008°50'0 0.0
2017-Apr-20 23:30N 44°25' E 008°50'0 0.0
2017-Apr-20 23:00N 44°25' E 008°50'0 0.0
2017-Apr-20 21:30N 44°25' E 008°50'0 0.0
2017-Apr-20 21:00N 44°25' E 008°50'0 0.0
2017-Apr-20 20:30N 44°25' E 008°50'0 0.0
2017-Apr-20 20:00N 44°25' E 008°50'0 0.0
2017-Apr-20 19:30N 44°25' E 008°50'0 0.0
2017-Apr-20 18:45N 44°25' E 008°50'0 0.0
2017-Apr-20 18:12N 44°25' E 008°50'0 0.0
2017-Apr-20 17:48N 44°25' E 008°50'0 0.0
2017-Apr-20 17:30N 44°25' E 008°50'0 0.0
2017-Apr-20 16:45N 44°25' E 008°50'0 0.0
2017-Apr-20 16:21N 44°25' E 008°50'0 0.0
2017-Apr-20 15:51N 44°25' E 008°50'0 0.0
2017-Apr-20 15:21N 44°25' E 008°50'0 0.0
2017-Apr-20 14:51N 44°25' E 008°50'0 0.0
2017-Apr-20 14:09N 44°25' E 008°50'0 0.0
2017-Apr-20 13:24N 44°25' E 008°50'0 0.0
2017-Apr-20 12:54N 44°25' E 008°50'0 0.0
2017-Apr-20 12:06N 44°25' E 008°50'0 0.0
2017-Apr-20 11:57N 44°25' E 008°50'0 0.0
2017-Apr-20 11:27N 44°25' E 008°50'0 0.0
2017-Apr-20 10:54N 44°25' E 008°50'0 0.0
2017-Apr-20 10:27N 44°25' E 008°50'0 0.0
2017-Apr-20 09:54N 44°25' E 008°50'0 0.0
2017-Apr-20 09:27N 44°25' E 008°50'0 0.0
2017-Apr-20 08:54N 44°25' E 008°50'0 0.0
2017-Apr-20 08:24N 44°25' E 008°50'0 0.0
2017-Apr-20 07:54N 44°25' E 008°50'0 0.0
2017-Apr-20 07:30N 44°25' E 008°50'0 0.0
2017-Apr-20 06:57N 44°25' E 008°50'0 0.0
2017-Apr-20 06:30N 44°25' E 008°50'0 0.0
2017-Apr-20 05:45N 44°25' E 008°50'0 0.0
2017-Apr-20 05:30N 44°25' E 008°50'0 0.0
2017-Apr-20 04:57N 44°25' E 008°50'0 0.0
2017-Apr-20 04:30N 44°25' E 008°50'0 0.0
2017-Apr-20 03:57N 44°25' E 008°50'0 0.0
2017-Apr-20 00:51N 44°25' E 008°50'0 0.0
2017-Apr-20 00:03N 44°25' E 008°50'0 0.0
2017-Apr-19 23:33N 44°25' E 008°50'0 0.0
2017-Apr-19 23:21N 44°25' E 008°50'0 0.0
2017-Apr-19 22:51N 44°25' E 008°50'0 0.0
2017-Apr-19 22:24N 44°25' E 008°50'0 0.0
2017-Apr-19 21:54N 44°25' E 008°50'0 0.0
2017-Apr-19 21:09N 44°25' E 008°50'0 0.0
2017-Apr-19 20:54N 44°25' E 008°50'0 0.0
2017-Apr-19 20:24N 44°25' E 008°50'0 0.0
2017-Apr-19 19:54N 44°25' E 008°50'0 0.0
2017-Apr-19 19:27N 44°25' E 008°50'0 0.0
2017-Apr-19 18:57N 44°25' E 008°50'0 0.0
2017-Apr-19 18:26N 44°25' E 008°50'0 0.0
2017-Apr-19 17:57N 44°25' E 008°50'0 0.0
2017-Apr-19 17:27N 44°25' E 008°50'0 0.0
2017-Apr-19 16:57N 44°25' E 008°50'0 0.0
2017-Apr-19 16:27N 44°25' E 008°50'0 0.0
2017-Apr-19 16:00N 44°25' E 008°50'0 0.0
2017-Apr-19 15:30N 44°25' E 008°50'0 0.0
2017-Apr-19 15:00N 44°25' E 008°50'0 0.0
2017-Apr-19 14:27N 44°25' E 008°50'0 0.0
2017-Apr-19 13:14N 44°25' E 008°50'0 0.0
2017-Apr-19 12:59N 44°25' E 008°50'0 0.0
2017-Apr-19 12:30N 44°25' E 008°50'0 0.0
2017-Apr-19 11:51N 44°25' E 008°50'0 0.0
2017-Apr-19 11:15N 44°25' E 008°50'0 0.0
2017-Apr-19 10:47N 44°25' E 008°50'0 0.0
2017-Apr-19 10:29N 44°25' E 008°50'0 0.0
2017-Apr-19 09:59N 44°25' E 008°50'0 0.0
2017-Apr-19 09:30N 44°25' E 008°50'0 0.0
2017-Apr-19 08:59N 44°25' E 008°50'0 0.0
2017-Apr-19 08:21N 44°25' E 008°50'0 0.0
2017-Apr-19 07:54N 44°25' E 008°50'0 0.0
2017-Apr-19 07:21N 44°25' E 008°50'0 0.0
2017-Apr-19 06:54N 44°25' E 008°50'0 0.0
2017-Apr-19 06:23N 44°25' E 008°50'0 0.0
2017-Apr-19 05:39N 44°25' E 008°50'0 0.0
2017-Apr-19 05:23N 44°25' E 008°50'0 0.0
2017-Apr-19 04:57N 44°25' E 008°50'0 0.0
2017-Apr-19 04:20N 44°25' E 008°50'0 0.0
2017-Apr-19 03:57N 44°25' E 008°50'0 0.0
2017-Apr-19 03:27N 44°25' E 008°50'0 0.0
2017-Apr-19 02:56N 44°25' E 008°50'0 0.0
2017-Apr-19 02:26N 44°25' E 008°50'0 0.0
2017-Apr-19 01:39N 44°25' E 008°50'0 0.0
2017-Apr-19 01:26N 44°25' E 008°50'0 0.0
2017-Apr-19 00:57N 44°25' E 008°50'0 0.0
2017-Apr-19 00:29N 44°25' E 008°50'0 0.0
2017-Apr-19 00:00N 44°25' E 008°50'0 0.0
2017-Apr-18 23:18N 44°25' E 008°50'0 0.0
2017-Apr-18 22:44N 44°25' E 008°50'0 0.0
2017-Apr-18 22:14N 44°25' E 008°50'0 0.0
2017-Apr-18 21:59N 44°25' E 008°50'0 0.0
2017-Apr-18 20:29N 44°25' E 008°50'0 0.0
2017-Apr-18 19:50N 44°25' E 008°50'0 0.0
2017-Apr-18 19:14N 44°25' E 008°50'0 0.0
2017-Apr-18 18:59N 44°25' E 008°50'0 0.0
2017-Apr-18 18:20N 44°25' E 008°50'0 0.0
2017-Apr-18 17:47N 44°25' E 008°50'0 0.0
2017-Apr-18 17:20N 44°25' E 008°50'0 0.0
2017-Apr-18 16:59N 44°25' E 008°50'0 0.0
2017-Apr-18 16:21N 44°25' E 008°50'0 0.0
2017-Apr-18 15:53N 44°25' E 008°50'0 0.0
2017-Apr-18 15:23N 44°25' E 008°50'0 0.0
2017-Apr-18 14:50N 44°25' E 008°50'0 0.0
2017-Apr-18 14:23N 44°25' E 008°50'0 0.0
2017-Apr-18 13:26N 44°25' E 008°50'0 0.0
2017-Apr-18 12:56N 44°25' E 008°50'0 0.0
2017-Apr-18 12:26N 44°25' E 008°50'0 0.0
2017-Apr-18 11:56N 44°25' E 008°50'0 0.0
2017-Apr-18 11:26N 44°25' E 008°50'0 0.0
2017-Apr-18 10:56N 44°25' E 008°50'0 0.0
2017-Apr-18 10:29N 44°25' E 008°50'0 0.0
2017-Apr-18 09:56N 44°25' E 008°50'0 0.0
2017-Apr-18 09:29N 44°25' E 008°50'0 0.0
2017-Apr-18 08:56N 44°25' E 008°50'0 0.0
2017-Apr-18 08:29N 44°25' E 008°50'0 0.0
2017-Apr-18 07:59N 44°25' E 008°50'0 0.0
2017-Apr-18 07:26N 44°25' E 008°50'0 0.0
2017-Apr-18 06:56N 44°25' E 008°50'0 0.0
2017-Apr-18 06:14N 44°25' E 008°50'0 0.0
2017-Apr-18 05:56N 44°25' E 008°50'0 0.0
2017-Apr-18 05:14N 44°25' E 008°50'0 0.0
2017-Apr-18 04:59N 44°25' E 008°50'0 0.0
2017-Apr-18 04:29N 44°25' E 008°50'0 0.0
2017-Apr-18 03:59N 44°25' E 008°50'0 0.0
2017-Apr-18 03:29N 44°25' E 008°50'0 0.0
2017-Apr-18 02:50N 44°25' E 008°50'0 0.0
2017-Apr-18 02:23N 44°25' E 008°50'0 0.0
2017-Apr-18 01:50N 44°25' E 008°50'0 0.0
2017-Apr-18 01:20N 44°25' E 008°50'0 0.0
2017-Apr-18 00:50N 44°25' E 008°50'0 0.0
2017-Apr-18 00:20N 44°25' E 008°50'0 0.0
2017-Apr-17 23:53N 44°25' E 008°50'0 0.0
2017-Apr-17 23:23N 44°25' E 008°50'0 0.0
2017-Apr-17 22:53N 44°25' E 008°50'0 0.0
2017-Apr-17 22:23N 44°25' E 008°50'0 0.0
2017-Apr-17 21:53N 44°25' E 008°50'0 0.0
2017-Apr-17 21:26N 44°25' E 008°50'0 0.0
2017-Apr-17 20:56N 44°25' E 008°50'0 0.0
2017-Apr-17 20:26N 44°25' E 008°50'0 0.0
2017-Apr-17 19:56N 44°25' E 008°50'0 0.0
2017-Apr-17 19:26N 44°25' E 008°50'0 0.0
2017-Apr-17 18:56N 44°25' E 008°50'0 0.0
2017-Apr-17 18:29N 44°25' E 008°50'0 0.0
2017-Apr-17 17:59N 44°25' E 008°50'0 0.0
2017-Apr-17 17:29N 44°25' E 008°50'0 0.0
2017-Apr-17 16:59N 44°25' E 008°50'0 0.0
2017-Apr-17 16:29N 44°25' E 008°50'0 0.0
2017-Apr-17 15:59N 44°25' E 008°50'0 0.0
2017-Apr-17 15:29N 44°25' E 008°50'0 0.0
2017-Apr-17 14:59N 44°25' E 008°50'0 0.0
2017-Apr-17 14:29N 44°25' E 008°50'0 0.0
2017-Apr-17 13:29N 44°25' E 008°50'0 0.0
2017-Apr-17 12:59N 44°25' E 008°50'0 0.0
2017-Apr-17 12:29N 44°25' E 008°50'0 0.0
2017-Apr-17 11:59N 44°25' E 008°50'0 0.0
2017-Apr-17 11:29N 44°25' E 008°50'0 0.0
2017-Apr-17 10:50N 44°25' E 008°50'0 0.0
2017-Apr-17 10:17N 44°25' E 008°50'0 0.0
2017-Apr-17 09:50N 44°25' E 008°50'0 0.0
2017-Apr-17 09:23N 44°25' E 008°50'0 0.0
2017-Apr-17 08:53N 44°25' E 008°50'0 0.0
2017-Apr-17 08:23N 44°25' E 008°50'0 0.0
2017-Apr-17 07:53N 44°25' E 008°50'0 0.0
2017-Apr-17 07:26N 44°25' E 008°50'0 0.0
2017-Apr-17 06:56N 44°25' E 008°50'0 0.0
2017-Apr-17 06:26N 44°25' E 008°50'0 0.0
2017-Apr-17 05:53N 44°25' E 008°50'0 0.0
2017-Apr-17 05:26N 44°25' E 008°50'0 0.0
2017-Apr-17 04:59N 44°25' E 008°50'0 0.0
2017-Apr-17 04:29N 44°25' E 008°50'0 0.0
2017-Apr-17 03:59N 44°25' E 008°50'0 0.0
2017-Apr-17 03:29N 44°25' E 008°50'0 0.0
2017-Apr-17 02:59N 44°25' E 008°50'0 0.0
2017-Apr-17 02:29N 44°25' E 008°50'0 0.0
2017-Apr-17 01:59N 44°25' E 008°50'0 0.0
2017-Apr-17 01:29N 44°25' E 008°50'0 0.0
2017-Apr-17 00:59N 44°25' E 008°50'0 0.0
2017-Apr-17 00:29N 44°25' E 008°50'0 0.0
2017-Apr-16 23:59N 44°25' E 008°50'0 0.0
2017-Apr-16 23:29N 44°25' E 008°50'0 0.0
2017-Apr-16 22:59N 44°25' E 008°50'0 0.0
2017-Apr-16 22:29N 44°25' E 008°50'0 0.0
2017-Apr-16 21:50N 44°25' E 008°50'0 0.0
2017-Apr-16 21:20N 44°25' E 008°50'0 0.0
2017-Apr-16 20:50N 44°25' E 008°50'0 0.0
2017-Apr-16 20:20N 44°25' E 008°50'0 0.0
2017-Apr-16 19:53N 44°25' E 008°50'0 0.0
2017-Apr-16 19:20N 44°25' E 008°50'0 0.0
2017-Apr-16 18:50N 44°25' E 008°50'0 0.0
2017-Apr-16 18:23N 44°25' E 008°50'0 0.0
2017-Apr-16 17:53N 44°25' E 008°50'0 0.0
2017-Apr-16 17:20N 44°25' E 008°50'0 0.0
2017-Apr-16 16:53N 44°25' E 008°50'0 0.0
2017-Apr-16 16:23N 44°25' E 008°50'0 0.0
2017-Apr-16 15:53N 44°25' E 008°50'0 0.0
2017-Apr-16 15:11N 44°25' E 008°50'0 0.0
2017-Apr-16 14:56N 44°25' E 008°50'0 0.0
2017-Apr-16 14:26N 44°25' E 008°50'0 0.0
2017-Apr-16 13:26N 44°25' E 008°50'0 0.0
2017-Apr-16 12:59N 44°25' E 008°50'0 0.0
2017-Apr-16 12:29N 44°25' E 008°50'0 0.0
2017-Apr-16 11:59N 44°25' E 008°50'0 0.0
2017-Apr-16 11:29N 44°25' E 008°50'0 0.0
2017-Apr-16 10:59N 44°25' E 008°50'0 0.0
2017-Apr-16 10:29N 44°25' E 008°50'0 0.0
2017-Apr-16 09:47N 44°25' E 008°50'0 0.0
2017-Apr-16 09:29N 44°25' E 008°50'0 0.0
2017-Apr-16 08:59N 44°25' E 008°50'0 0.0
2017-Apr-16 08:29N 44°25' E 008°50'0 0.0
2017-Apr-16 07:59N 44°25' E 008°50'0 0.0
2017-Apr-16 07:29N 44°25' E 008°50'0 0.0
2017-Apr-16 06:59N 44°25' E 008°50'0 0.0
2017-Apr-16 06:29N 44°25' E 008°50'0 0.0
2017-Apr-16 05:50N 44°25' E 008°50'0 0.0
2017-Apr-16 05:29N 44°25' E 008°50'0 0.0
2017-Apr-16 04:50N 44°25' E 008°50'0 0.0
2017-Apr-16 04:20N 44°25' E 008°50'0 0.0
2017-Apr-16 03:53N 44°25' E 008°50'0 0.0
2017-Apr-16 03:20N 44°25' E 008°50'0 0.0
2017-Apr-16 02:53N 44°25' E 008°50'0 0.0
2017-Apr-16 02:23N 44°25' E 008°50'0 0.0
2017-Apr-16 01:53N 44°25' E 008°50'0 0.0
2017-Apr-16 01:26N 44°25' E 008°50'0 0.0
2017-Apr-16 00:53N 44°25' E 008°50'0 0.0
2017-Apr-16 00:26N 44°25' E 008°50'0 0.0
2017-Apr-15 23:50N 44°25' E 008°50'0 0.0
2017-Apr-15 23:23N 44°25' E 008°50'0 0.0
2017-Apr-15 22:56N 44°25' E 008°50'0 0.0
2017-Apr-15 22:29N 44°25' E 008°50'0 0.0
2017-Apr-15 21:59N 44°25' E 008°50'0 0.0
2017-Apr-15 21:29N 44°25' E 008°50'0 0.0
2017-Apr-15 20:59N 44°25' E 008°50'  
Track history (hours):
 
Tides and Currents Weather Stations Pressure Air Temp Water Temp Dewpoint Dewpoint Depression Visibility Wind Speed Wind Dir Waves Ship Positions

Superfun

Last reported at 2017-Apr-25 20:44 UTC. Time now 2017-Apr-28 06:25 UTC.
Position N 43°17' E 007°06'.

Length 40 m.

Type: Other ship. MMSI: 319163000.

Date/timePositionNaut miles runAvg speedWind from/ knotsBaromVisibWave heightAir tempDewpointWater temp
2017-Apr-25 20:44N 43°17' E 007°06'3 9.1
2017-Apr-25 20:23N 43°18' E 007°10'3 8.9
2017-Apr-25 20:00N 43°20' E 007°14'4 8.8
2017-Apr-25 19:30N 43°24' E 007°17'4 8.6
2017-Apr-25 19:00N 43°28' E 007°19'4 8.3
2017-Apr-25 18:30N 43°32' E 007°21'4 8.1
2017-Apr-25 18:00N 43°36' E 007°23'4 8.1
2017-Apr-25 17:31N 43°40' E 007°25'  
2017-Apr-21 06:04N 44°08' E 008°25'1 9.3
2017-Apr-21 06:00N 44°08' E 008°26'5 9.2
2017-Apr-21 05:30N 44°12' E 008°30'5 9.4
2017-Apr-21 05:00N 44°15' E 008°34'5 9.4
2017-Apr-21 04:30N 44°19' E 008°39'5 9.4
2017-Apr-21 04:00N 44°22' E 008°44'5 9.1
2017-Apr-21 03:30N 44°25' E 008°48'1 1.0
2017-Apr-21 02:06N 44°25' E 008°50'0 0.0
2017-Apr-21 01:42N 44°25' E 008°50'0 0.0
2017-Apr-21 01:27N 44°25' E 008°50'0 0.0
2017-Apr-21 00:36N 44°25' E 008°50'0 0.0
2017-Apr-21 00:27N 44°25' E 008°50'0 0.0
2017-Apr-20 23:57N 44°25' E 008°50'0 0.0
2017-Apr-20 23:30N 44°25' E 008°50'0 0.0
2017-Apr-20 23:00N 44°25' E 008°50'0 0.0
2017-Apr-20 21:30N 44°25' E 008°50'0 0.0
2017-Apr-20 21:00N 44°25' E 008°50'0 0.0
2017-Apr-20 20:30N 44°25' E 008°50'0 0.0
2017-Apr-20 20:00N 44°25' E 008°50'0 0.0
2017-Apr-20 19:30N 44°25' E 008°50'0 0.0
2017-Apr-20 18:45N 44°25' E 008°50'0 0.0
2017-Apr-20 18:12N 44°25' E 008°50'0 0.0
2017-Apr-20 17:48N 44°25' E 008°50'0 0.0
2017-Apr-20 17:30N 44°25' E 008°50'0 0.0
2017-Apr-20 16:45N 44°25' E 008°50'0 0.0
2017-Apr-20 16:21N 44°25' E 008°50'0 0.0
2017-Apr-20 15:51N 44°25' E 008°50'0 0.0
2017-Apr-20 15:21N 44°25' E 008°50'0 0.0
2017-Apr-20 14:51N 44°25' E 008°50'0 0.0
2017-Apr-20 14:09N 44°25' E 008°50'0 0.0
2017-Apr-20 13:24N 44°25' E 008°50'0 0.0
2017-Apr-20 12:54N 44°25' E 008°50'0 0.0
2017-Apr-20 12:06N 44°25' E 008°50'0 0.0
2017-Apr-20 11:57N 44°25' E 008°50'0 0.0
2017-Apr-20 11:27N 44°25' E 008°50'0 0.0
2017-Apr-20 10:54N 44°25' E 008°50'0 0.0
2017-Apr-20 10:27N 44°25' E 008°50'0 0.0
2017-Apr-20 09:54N 44°25' E 008°50'0 0.0
2017-Apr-20 09:27N 44°25' E 008°50'0 0.0
2017-Apr-20 08:54N 44°25' E 008°50'0 0.0
2017-Apr-20 08:24N 44°25' E 008°50'0 0.0
2017-Apr-20 07:54N 44°25' E 008°50'0 0.0
2017-Apr-20 07:30N 44°25' E 008°50'0 0.0
2017-Apr-20 06:57N 44°25' E 008°50'0 0.0
2017-Apr-20 06:30N 44°25' E 008°50'0 0.0
2017-Apr-20 05:45N 44°25' E 008°50'0 0.0
2017-Apr-20 05:30N 44°25' E 008°50'0 0.0
2017-Apr-20 04:57N 44°25' E 008°50'0 0.0
2017-Apr-20 04:30N 44°25' E 008°50'0 0.0
2017-Apr-20 03:57N 44°25' E 008°50'0 0.0
2017-Apr-20 00:51N 44°25' E 008°50'0 0.0
2017-Apr-20 00:03N 44°25' E 008°50'0 0.0
2017-Apr-19 23:33N 44°25' E 008°50'0 0.0
2017-Apr-19 23:21N 44°25' E 008°50'0 0.0
2017-Apr-19 22:51N 44°25' E 008°50'0 0.0
2017-Apr-19 22:24N 44°25' E 008°50'0 0.0
2017-Apr-19 21:54N 44°25' E 008°50'0 0.0
2017-Apr-19 21:09N 44°25' E 008°50'0 0.0
2017-Apr-19 20:54N 44°25' E 008°50'0 0.0
2017-Apr-19 20:24N 44°25' E 008°50'0 0.0
2017-Apr-19 19:54N 44°25' E 008°50'0 0.0
2017-Apr-19 19:27N 44°25' E 008°50'0 0.0
2017-Apr-19 18:57N 44°25' E 008°50'0 0.0
2017-Apr-19 18:26N 44°25' E 008°50'0 0.0
2017-Apr-19 17:57N 44°25' E 008°50'0 0.0
2017-Apr-19 17:27N 44°25' E 008°50'0 0.0
2017-Apr-19 16:57N 44°25' E 008°50'0 0.0
2017-Apr-19 16:27N 44°25' E 008°50'0 0.0
2017-Apr-19 16:00N 44°25' E 008°50'0 0.0
2017-Apr-19 15:30N 44°25' E 008°50'0 0.0
2017-Apr-19 15:00N 44°25' E 008°50'0 0.0
2017-Apr-19 14:27N 44°25' E 008°50'0 0.0
2017-Apr-19 13:14N 44°25' E 008°50'0 0.0
2017-Apr-19 12:59N 44°25' E 008°50'0 0.0
2017-Apr-19 12:30N 44°25' E 008°50'0 0.0
2017-Apr-19 11:51N 44°25' E 008°50'0 0.0
2017-Apr-19 11:15N 44°25' E 008°50'0 0.0
2017-Apr-19 10:47N 44°25' E 008°50'0 0.0
2017-Apr-19 10:29N 44°25' E 008°50'0 0.0
2017-Apr-19 09:59N 44°25' E 008°50'0 0.0
2017-Apr-19 09:30N 44°25' E 008°50'0 0.0
2017-Apr-19 08:59N 44°25' E 008°50'0 0.0
2017-Apr-19 08:21N 44°25' E 008°50'0 0.0
2017-Apr-19 07:54N 44°25' E 008°50'0 0.0
2017-Apr-19 07:21N 44°25' E 008°50'0 0.0
2017-Apr-19 06:54N 44°25' E 008°50'0 0.0
2017-Apr-19 06:23N 44°25' E 008°50'0 0.0
2017-Apr-19 05:39N 44°25' E 008°50'0 0.0
2017-Apr-19 05:23N 44°25' E 008°50'0 0.0
2017-Apr-19 04:57N 44°25' E 008°50'0 0.0
2017-Apr-19 04:20N 44°25' E 008°50'0 0.0
2017-Apr-19 03:57N 44°25' E 008°50'0 0.0
2017-Apr-19 03:27N 44°25' E 008°50'0 0.0
2017-Apr-19 02:56N 44°25' E 008°50'0 0.0
2017-Apr-19 02:26N 44°25' E 008°50'0 0.0
2017-Apr-19 01:39N 44°25' E 008°50'0 0.0
2017-Apr-19 01:26N 44°25' E 008°50'0 0.0
2017-Apr-19 00:57N 44°25' E 008°50'0 0.0
2017-Apr-19 00:29N 44°25' E 008°50'0 0.0
2017-Apr-19 00:00N 44°25' E 008°50'0 0.0
2017-Apr-18 23:18N 44°25' E 008°50'0 0.0
2017-Apr-18 22:44N 44°25' E 008°50'0 0.0
2017-Apr-18 22:14N 44°25' E 008°50'0 0.0
2017-Apr-18 21:59N 44°25' E 008°50'0 0.0
2017-Apr-18 20:29N 44°25' E 008°50'0 0.0
2017-Apr-18 19:50N 44°25' E 008°50'0 0.0
2017-Apr-18 19:14N 44°25' E 008°50'0 0.0
2017-Apr-18 18:59N 44°25' E 008°50'0 0.0
2017-Apr-18 18:20N 44°25' E 008°50'0 0.0
2017-Apr-18 17:47N 44°25' E 008°50'0 0.0
2017-Apr-18 17:20N 44°25' E 008°50'0 0.0
2017-Apr-18 16:59N 44°25' E 008°50'0 0.0
2017-Apr-18 16:21N 44°25' E 008°50'0 0.0
2017-Apr-18 15:53N 44°25' E 008°50'0 0.0
2017-Apr-18 15:23N 44°25' E 008°50'0 0.0
2017-Apr-18 14:50N 44°25' E 008°50'0 0.0
2017-Apr-18 14:23N 44°25' E 008°50'0 0.0
2017-Apr-18 13:26N 44°25' E 008°50'0 0.0
2017-Apr-18 12:56N 44°25' E 008°50'0 0.0
2017-Apr-18 12:26N 44°25' E 008°50'0 0.0
2017-Apr-18 11:56N 44°25' E 008°50'0 0.0
2017-Apr-18 11:26N 44°25' E 008°50'0 0.0
2017-Apr-18 10:56N 44°25' E 008°50'0 0.0
2017-Apr-18 10:29N 44°25' E 008°50'0 0.0
2017-Apr-18 09:56N 44°25' E 008°50'0 0.0
2017-Apr-18 09:29N 44°25' E 008°50'0 0.0
2017-Apr-18 08:56N 44°25' E 008°50'0 0.0
2017-Apr-18 08:29N 44°25' E 008°50'0 0.0
2017-Apr-18 07:59N 44°25' E 008°50'0 0.0
2017-Apr-18 07:26N 44°25' E 008°50'0 0.0
2017-Apr-18 06:56N 44°25' E 008°50'0 0.0
2017-Apr-18 06:14N 44°25' E 008°50'0 0.0
2017-Apr-18 05:56N 44°25' E 008°50'0 0.0
2017-Apr-18 05:14N 44°25' E 008°50'0 0.0
2017-Apr-18 04:59N 44°25' E 008°50'0 0.0
2017-Apr-18 04:29N 44°25' E 008°50'0 0.0
2017-Apr-18 03:59N 44°25' E 008°50'0 0.0
2017-Apr-18 03:29N 44°25' E 008°50'0 0.0
2017-Apr-18 02:50N 44°25' E 008°50'0 0.0
2017-Apr-18 02:23N 44°25' E 008°50'0 0.0
2017-Apr-18 01:50N 44°25' E 008°50'0 0.0
2017-Apr-18 01:20N 44°25' E 008°50'0 0.0
2017-Apr-18 00:50N 44°25' E 008°50'0 0.0
2017-Apr-18 00:20N 44°25' E 008°50'0 0.0
2017-Apr-17 23:53N 44°25' E 008°50'0 0.0
2017-Apr-17 23:23N 44°25' E 008°50'0 0.0
2017-Apr-17 22:53N 44°25' E 008°50'0 0.0
2017-Apr-17 22:23N 44°25' E 008°50'0 0.0
2017-Apr-17 21:53N 44°25' E 008°50'0 0.0
2017-Apr-17 21:26N 44°25' E 008°50'0 0.0
2017-Apr-17 20:56N 44°25' E 008°50'0 0.0
2017-Apr-17 20:26N 44°25' E 008°50'0 0.0
2017-Apr-17 19:56N 44°25' E 008°50'0 0.0
2017-Apr-17 19:26N 44°25' E 008°50'0 0.0
2017-Apr-17 18:56N 44°25' E 008°50'0 0.0
2017-Apr-17 18:29N 44°25' E 008°50'0 0.0
2017-Apr-17 17:59N 44°25' E 008°50'0 0.0
2017-Apr-17 17:29N 44°25' E 008°50'0 0.0
2017-Apr-17 16:59N 44°25' E 008°50'0 0.0
2017-Apr-17 16:29N 44°25' E 008°50'0 0.0
2017-Apr-17 15:59N 44°25' E 008°50'0 0.0
2017-Apr-17 15:29N 44°25' E 008°50'0 0.0
2017-Apr-17 14:59N 44°25' E 008°50'0 0.0
2017-Apr-17 14:29N 44°25' E 008°50'0 0.0
2017-Apr-17 13:29N 44°25' E 008°50'0 0.0
2017-Apr-17 12:59N 44°25' E 008°50'0 0.0
2017-Apr-17 12:29N 44°25' E 008°50'0 0.0
2017-Apr-17 11:59N 44°25' E 008°50'0 0.0
2017-Apr-17 11:29N 44°25' E 008°50'0 0.0
2017-Apr-17 10:50N 44°25' E 008°50'0 0.0
2017-Apr-17 10:17N 44°25' E 008°50'0 0.0
2017-Apr-17 09:50N 44°25' E 008°50'0 0.0
2017-Apr-17 09:23N 44°25' E 008°50'0 0.0
2017-Apr-17 08:53N 44°25' E 008°50'0 0.0
2017-Apr-17 08:23N 44°25' E 008°50'0 0.0
2017-Apr-17 07:53N 44°25' E 008°50'0 0.0
2017-Apr-17 07:26N 44°25' E 008°50'0 0.0
2017-Apr-17 06:56N 44°25' E 008°50'0 0.0
2017-Apr-17 06:26N 44°25' E 008°50'0 0.0
2017-Apr-17 05:53N 44°25' E 008°50'0 0.0
2017-Apr-17 05:26N 44°25' E 008°50'0 0.0
2017-Apr-17 04:59N 44°25' E 008°50'0 0.0
2017-Apr-17 04:29N 44°25' E 008°50'0 0.0
2017-Apr-17 03:59N 44°25' E 008°50'0 0.0
2017-Apr-17 03:29N 44°25' E 008°50'0 0.0
2017-Apr-17 02:59N 44°25' E 008°50'0 0.0
2017-Apr-17 02:29N 44°25' E 008°50'0 0.0
2017-Apr-17 01:59N 44°25' E 008°50'0 0.0
2017-Apr-17 01:29N 44°25' E 008°50'0 0.0
2017-Apr-17 00:59N 44°25' E 008°50'0 0.0
2017-Apr-17 00:29N 44°25' E 008°50'0 0.0
2017-Apr-16 23:59N 44°25' E 008°50'0 0.0
2017-Apr-16 23:29N 44°25' E 008°50'0 0.0
2017-Apr-16 22:59N 44°25' E 008°50'0 0.0
2017-Apr-16 22:29N 44°25' E 008°50'0 0.0
2017-Apr-16 21:50N 44°25' E 008°50'0 0.0
2017-Apr-16 21:20N 44°25' E 008°50'0 0.0
2017-Apr-16 20:50N 44°25' E 008°50'0 0.0
2017-Apr-16 20:20N 44°25' E 008°50'0 0.0
2017-Apr-16 19:53N 44°25' E 008°50'0 0.0
2017-Apr-16 19:20N 44°25' E 008°50'0 0.0
2017-Apr-16 18:50N 44°25' E 008°50'0 0.0
2017-Apr-16 18:23N 44°25' E 008°50'0 0.0
2017-Apr-16 17:53N 44°25' E 008°50'0 0.0
2017-Apr-16 17:20N 44°25' E 008°50'0 0.0
2017-Apr-16 16:53N 44°25' E 008°50'0 0.0
2017-Apr-16 16:23N 44°25' E 008°50'0 0.0
2017-Apr-16 15:53N 44°25' E 008°50'0 0.0
2017-Apr-16 15:11N 44°25' E 008°50'0 0.0
2017-Apr-16 14:56N 44°25' E 008°50'0 0.0
2017-Apr-16 14:26N 44°25' E 008°50'0 0.0
2017-Apr-16 13:26N 44°25' E 008°50'0 0.0
2017-Apr-16 12:59N 44°25' E 008°50'0 0.0
2017-Apr-16 12:29N 44°25' E 008°50'0 0.0
2017-Apr-16 11:59N 44°25' E 008°50'0 0.0
2017-Apr-16 11:29N 44°25' E 008°50'0 0.0
2017-Apr-16 10:59N 44°25' E 008°50'0 0.0
2017-Apr-16 10:29N 44°25' E 008°50'0 0.0
2017-Apr-16 09:47N 44°25' E 008°50'0 0.0
2017-Apr-16 09:29N 44°25' E 008°50'0 0.0
2017-Apr-16 08:59N 44°25' E 008°50'0 0.0
2017-Apr-16 08:29N 44°25' E 008°50'0 0.0
2017-Apr-16 07:59N 44°25' E 008°50'0 0.0
2017-Apr-16 07:29N 44°25' E 008°50'0 0.0
2017-Apr-16 06:59N 44°25' E 008°50'0 0.0
2017-Apr-16 06:29N 44°25' E 008°50'0 0.0
2017-Apr-16 05:50N 44°25' E 008°50'0 0.0
2017-Apr-16 05:29N 44°25' E 008°50'0 0.0
2017-Apr-16 04:50N 44°25' E 008°50'0 0.0
2017-Apr-16 04:20N 44°25' E 008°50'0 0.0
2017-Apr-16 03:53N 44°25' E 008°50'0 0.0
2017-Apr-16 03:20N 44°25' E 008°50'0 0.0
2017-Apr-16 02:53N 44°25' E 008°50'0 0.0
2017-Apr-16 02:23N 44°25' E 008°50'0 0.0
2017-Apr-16 01:53N 44°25' E 008°50'0 0.0
2017-Apr-16 01:26N 44°25' E 008°50'0 0.0
2017-Apr-16 00:53N 44°25' E 008°50'0 0.0
2017-Apr-16 00:26N 44°25' E 008°50'0 0.0
2017-Apr-15 23:50N 44°25' E 008°50'0 0.0
2017-Apr-15 23:23N 44°25' E 008°50'0 0.0
2017-Apr-15 22:56N 44°25' E 008°50'0 0.0
2017-Apr-15 22:29N 44°25' E 008°50'0 0.0
2017-Apr-15 21:59N 44°25' E 008°50'0 0.0
2017-Apr-15 21:29N 44°25' E 008°50'0 0.0
2017-Apr-15 20:59N 44°25' E 008°50'  

Dump ship's entire track history